Time;durP1;ratioP1;P1;durP2;ratioP2;P2;SDS_P1;SDS_P2;PMS_P1;PMS_P2;Temp;Humidity;BMP_temperature;BMP_pressure;BME280_temperature;BME280_humidity;BME280_pressure;Samples;Min_cycle;Max_cycle;Signal;HPM_P1;HPM_P2
2023/06/10 00:02:11;;;;;;;8.93;6.68;;;17.30;99.90;;;;;;5062972;28;20181;-42
2023/06/10 00:04:37;;;;;;;8.73;6.88;;;17.30;99.90;;;;;;5054725;28;20207;-40
2023/06/10 00:07:08;;;;;;;6.60;6.10;;;17.30;99.90;;;;;;5069252;28;20174;-40
2023/06/10 00:09:38;;;;;;;7.35;6.55;;;17.20;99.90;;;;;;5069988;28;20170;-37
2023/06/10 00:12:06;;;;;;;6.93;6.32;;;17.20;99.90;;;;;;5068851;28;20185;-39
2023/06/10 00:14:33;;;;;;;7.38;6.78;;;17.20;99.90;;;;;;5079891;28;20197;-40
2023/06/10 00:16:59;;;;;;;7.13;6.50;;;17.20;99.90;;;;;;5054497;28;20308;-40
2023/06/10 00:19:29;;;;;;;9.27;6.50;;;17.10;99.90;;;;;;5070587;28;20325;-33
2023/06/10 00:21:56;;;;;;;7.47;6.68;;;17.10;99.90;;;;;;5051161;28;20174;-41
2023/06/10 00:24:23;;;;;;;7.57;6.77;;;17.10;99.90;;;;;;5070402;28;20215;-37
2023/06/10 00:26:49;;;;;;;8.23;7.43;;;17.00;99.90;;;;;;5073729;28;20176;-41
2023/06/10 00:29:16;;;;;;;8.70;7.80;;;17.00;99.90;;;;;;5078964;28;20188;-39
2023/06/10 00:31:44;;;;;;;9.03;7.27;;;16.90;99.90;;;;;;5051508;28;20680;-38
2023/06/10 00:34:12;;;;;;;11.23;7.78;;;16.80;99.90;;;;;;5066318;28;20223;-41
2023/06/10 00:36:38;;;;;;;8.07;7.37;;;16.80;99.90;;;;;;5069677;28;20178;-40
2023/06/10 00:39:05;;;;;;;7.50;6.90;;;16.80;99.90;;;;;;5069875;28;20181;-37
2023/06/10 00:41:33;;;;;;;8.37;7.53;;;16.70;99.90;;;;;;5068798;28;20182;-40
2023/06/10 00:44:00;;;;;;;8.20;7.27;;;16.70;99.90;;;;;;5073697;28;20209;-41
2023/06/10 00:46:26;;;;;;;8.10;7.40;;;16.60;99.90;;;;;;5067404;28;20181;-41
2023/06/10 00:48:55;;;;;;;8.30;7.40;;;16.60;99.90;;;;;;5066917;28;20325;-38
2023/06/10 00:51:23;;;;;;;7.67;6.87;;;16.50;99.90;;;;;;5043456;28;20183;-38
2023/06/10 00:53:50;;;;;;;8.27;7.13;;;16.50;99.90;;;;;;5065824;28;20193;-36
2023/06/10 00:56:16;;;;;;;9.07;7.50;;;16.50;99.90;;;;;;5084511;28;20208;-40
2023/06/10 00:58:43;;;;;;;8.63;7.43;;;16.50;99.90;;;;;;5051431;28;20186;-33
2023/06/10 01:01:11;;;;;;;9.63;7.90;;;16.50;99.90;;;;;;5058400;28;20207;-41
2023/06/10 01:03:38;;;;;;;8.37;7.57;;;16.40;99.90;;;;;;5051313;28;20260;-38
2023/06/10 01:06:17;;;;;;;8.87;7.87;;;16.40;99.90;;;;;;5066631;28;20184;-39
2023/06/10 01:09:28;;;;;;;8.17;7.43;;;16.30;99.90;;;;;;5062976;28;20314;-37
2023/06/10 01:12:48;;;;;;;8.73;7.70;;;16.30;99.90;;;;;;5038812;28;20189;-38
2023/06/10 01:15:18;;;;;;;8.27;7.47;;;16.30;99.90;;;;;;5047721;28;20300;-37
2023/06/10 01:17:57;;;;;;;9.17;8.00;;;16.20;99.90;;;;;;5086413;28;20178;-36
2023/06/10 01:20:28;;;;;;;8.03;7.13;;;16.20;99.90;;;;;;5066478;28;20188;-40
2023/06/10 01:22:57;;;;;;;8.07;7.37;;;16.10;99.90;;;;;;5072781;28;20206;-38
2023/06/10 01:25:27;;;;;;;11.40;7.93;;;16.00;99.90;;;;;;5057290;28;20204;-40
2023/06/10 01:28:13;;;;;;;8.70;7.90;;;15.90;99.90;;;;;;5060735;28;20181;-38
2023/06/10 01:30:45;;;;;;;8.63;7.80;;;15.80;99.90;;;;;;5052781;28;20174;-39
2023/06/10 01:33:14;;;;;;;8.53;7.37;;;15.80;99.90;;;;;;5044522;28;20189;-39
2023/06/10 01:35:43;;;;;;;8.20;7.50;;;15.80;99.90;;;;;;5067155;28;20209;-40
2023/06/10 01:38:11;;;;;;;8.90;8.10;;;15.80;99.90;;;;;;5083333;28;20189;-39
2023/06/10 01:40:39;;;;;;;8.20;7.43;;;15.70;99.90;;;;;;5069483;28;20188;-38
2023/06/10 01:43:05;;;;;;;8.57;7.70;;;15.70;99.90;;;;;;5061059;28;20204;-39
2023/06/10 01:45:31;;;;;;;8.50;7.73;;;15.60;99.90;;;;;;5069667;28;20197;-37
2023/06/10 01:47:57;;;;;;;7.90;7.20;;;15.60;99.90;;;;;;5082569;28;20277;-39
2023/06/10 01:50:22;;;;;;;8.83;7.50;;;15.60;99.90;;;;;;5061573;28;20196;-40
2023/06/10 01:52:48;;;;;;;8.03;7.33;;;15.60;99.90;;;;;;5052570;28;20272;-40
2023/06/10 01:55:14;;;;;;;8.07;7.37;;;15.60;99.90;;;;;;5051242;28;20214;-37
2023/06/10 01:57:40;;;;;;;8.20;7.50;;;15.70;99.90;;;;;;5068289;28;20173;-38
2023/06/10 02:00:07;;;;;;;7.83;7.13;;;15.70;99.90;;;;;;5061147;28;20193;-38
2023/06/10 02:02:40;;;;;;;7.57;6.80;;;15.60;99.90;;;;;;5053357;28;20205;-38
2023/06/10 02:05:07;;;;;;;8.97;8.07;;;15.60;99.90;;;;;;5058161;28;20212;-38
2023/06/10 02:07:32;;;;;;;9.60;8.23;;;15.60;99.90;;;;;;5067020;28;20177;-37
2023/06/10 02:09:58;;;;;;;8.57;7.77;;;15.60;99.90;;;;;;5069466;28;20176;-39
2023/06/10 02:12:24;;;;;;;9.43;8.63;;;15.60;99.90;;;;;;5067640;28;20257;-37
2023/06/10 02:14:50;;;;;;;9.50;8.10;;;15.50;99.90;;;;;;5068794;28;20251;-39
2023/06/10 02:17:17;;;;;;;9.17;8.23;;;15.50;99.90;;;;;;5064862;28;20269;-36
2023/06/10 02:19:43;;;;;;;9.30;8.37;;;15.50;99.90;;;;;;5063785;28;20221;-38
2023/06/10 02:22:09;;;;;;;8.60;7.80;;;15.40;99.90;;;;;;5061220;28;20263;-39
2023/06/10 02:24:38;;;;;;;8.93;8.03;;;15.30;99.90;;;;;;5063494;28;20234;-35
2023/06/10 02:27:06;;;;;;;8.23;7.53;;;15.30;99.90;;;;;;5068454;28;20181;-36
2023/06/10 02:29:36;;;;;;;9.33;8.50;;;15.20;99.90;;;;;;5070890;28;20268;-36
2023/06/10 02:32:02;;;;;;;10.30;8.77;;;15.30;99.90;;;;;;5073999;28;20181;-38
2023/06/10 02:34:28;;;;;;;9.43;8.53;;;15.30;99.90;;;;;;5036872;28;20254;-39
2023/06/10 02:36:57;;;;;;;9.40;8.60;;;15.20;99.90;;;;;;5046461;28;20177;-40
2023/06/10 02:39:23;;;;;;;10.10;9.00;;;15.20;99.90;;;;;;5044142;28;20652;-38
2023/06/10 02:41:50;;;;;;;10.00;9.03;;;15.20;99.90;;;;;;5046852;28;20223;-38
2023/06/10 02:44:18;;;;;;;9.80;8.90;;;15.20;99.90;;;;;;5049666;28;20863;-40
2023/06/10 02:46:44;;;;;;;9.37;8.33;;;15.30;99.90;;;;;;5059643;28;20173;-41
2023/06/10 02:49:12;;;;;;;9.23;8.27;;;15.30;99.90;;;;;;5065366;28;20181;-40
2023/06/10 02:51:38;;;;;;;9.60;8.80;;;15.20;99.90;;;;;;5045645;28;20173;-38
2023/06/10 02:54:05;;;;;;;9.03;8.23;;;15.10;99.90;;;;;;5073151;28;20197;-37
2023/06/10 02:56:32;;;;;;;8.90;8.10;;;15.10;99.90;;;;;;5069372;28;20178;-39
2023/06/10 02:59:01;;;;;;;8.70;7.90;;;15.00;99.90;;;;;;5067477;28;20200;-34
2023/06/10 03:01:31;;;;;;;8.57;7.77;;;15.00;99.90;;;;;;5056141;28;20182;-36
2023/06/10 03:04:05;;;;;;;9.47;8.47;;;14.90;99.90;;;;;;5057997;28;20204;-35
2023/06/10 03:06:35;;;;;;;9.20;8.30;;;14.80;99.90;;;;;;5077121;28;20184;-38
2023/06/10 03:09:22;;;;;;;9.70;8.70;;;14.80;99.90;;;;;;5068773;28;20173;-40
2023/06/10 03:11:52;;;;;;;8.87;8.13;;;14.80;99.90;;;;;;5083393;28;20177;-39
2023/06/10 03:14:18;;;;;;;9.13;8.30;;;14.70;99.90;;;;;;5066221;28;20209;-39
2023/06/10 03:16:45;;;;;;;9.13;8.33;;;14.70;99.90;;;;;;5048249;28;20184;-39
2023/06/10 03:19:12;;;;;;;11.17;9.37;;;14.70;99.90;;;;;;5064551;28;20182;-38
2023/06/10 03:21:44;;;;;;;9.97;9.07;;;14.70;99.90;;;;;;5062485;28;20181;-37
2023/06/10 03:24:10;;;;;;;9.33;8.40;;;14.60;99.90;;;;;;5063588;28;20215;-37
2023/06/10 03:26:37;;;;;;;9.63;8.77;;;14.60;99.90;;;;;;5065409;28;20204;-41
2023/06/10 03:29:05;;;;;;;9.83;8.90;;;14.60;99.90;;;;;;5060770;28;20265;-39
2023/06/10 03:31:31;;;;;;;9.50;8.57;;;14.60;99.90;;;;;;5060147;28;20170;-39
2023/06/10 03:33:58;;;;;;;10.43;9.43;;;14.60;99.90;;;;;;5052188;28;20214;-37
2023/06/10 03:36:27;;;;;;;9.93;9.03;;;14.60;99.90;;;;;;5064774;28;20182;-37
2023/06/10 03:38:56;;;;;;;9.73;8.70;;;14.60;99.90;;;;;;5062668;28;20211;-39
2023/06/10 03:41:23;;;;;;;9.10;8.30;;;14.60;99.90;;;;;;5079037;28;20644;-37
2023/06/10 03:43:50;;;;;;;10.27;9.37;;;14.60;99.90;;;;;;5067392;28;20334;-38
2023/06/10 03:46:17;;;;;;;10.50;9.40;;;14.60;99.90;;;;;;5055293;28;20203;-41
2023/06/10 03:48:44;;;;;;;9.60;8.80;;;14.60;99.90;;;;;;5065146;28;20174;-42
2023/06/10 03:51:10;;;;;;;10.10;9.20;;;14.50;99.90;;;;;;5070301;28;20276;-39
2023/06/10 03:53:35;;;;;;;9.93;8.40;;;14.50;99.90;;;;;;5063690;28;20253;-36
2023/06/10 03:56:01;;;;;;;9.13;8.33;;;14.50;99.90;;;;;;5060932;28;20280;-39
2023/06/10 03:58:29;;;;;;;9.07;8.17;;;14.40;99.90;;;;;;5068470;28;20179;-38
2023/06/10 04:00:55;;;;;;;10.53;9.20;;;14.40;99.90;;;;;;5071127;28;20230;-39
2023/06/10 04:03:29;;;;;;;10.40;9.40;;;14.40;99.90;;;;;;5056027;28;20200;-40
2023/06/10 04:05:55;;;;;;;10.30;9.40;;;14.40;99.90;;;;;;5045759;28;20201;-36
2023/06/10 04:08:21;;;;;;;10.27;9.27;;;14.40;99.90;;;;;;5064864;28;20173;-38
2023/06/10 04:10:47;;;;;;;10.37;9.33;;;14.50;99.90;;;;;;5079089;28;20215;-39
2023/06/10 04:13:14;;;;;;;9.90;8.73;;;14.50;99.90;;;;;;5054296;28;20185;-39
2023/06/10 04:15:49;;;;;;;9.40;8.60;;;14.60;99.90;;;;;;5064380;28;20201;-37
2023/06/10 04:18:17;;;;;;;9.13;8.23;;;14.60;99.90;;;;;;5067200;28;20316;-43
2023/06/10 04:20:44;;;;;;;9.87;8.97;;;14.70;99.90;;;;;;5068087;28;20193;-34
2023/06/10 04:23:11;;;;;;;10.70;9.70;;;14.70;99.90;;;;;;5084740;28;20206;-38
2023/06/10 04:25:41;;;;;;;10.13;9.23;;;14.80;99.90;;;;;;5070105;28;20200;-37
2023/06/10 04:28:08;;;;;;;10.03;9.13;;;14.80;99.90;;;;;;5053635;28;20222;-38
2023/06/10 04:30:35;;;;;;;10.87;9.60;;;14.80;99.90;;;;;;5077991;28;20239;-38
2023/06/10 04:33:02;;;;;;;11.00;10.00;;;14.80;99.90;;;;;;5067384;28;20185;-39
2023/06/10 04:35:28;;;;;;;10.37;9.47;;;14.90;99.90;;;;;;5043977;28;20220;-40
2023/06/10 04:37:56;;;;;;;11.00;10.00;;;14.90;99.90;;;;;;5064403;28;20243;-40
2023/06/10 04:40:24;;;;;;;10.23;9.23;;;14.90;99.90;;;;;;5062944;28;20264;-40
2023/06/10 04:42:49;;;;;;;10.63;9.57;;;15.00;99.90;;;;;;5079241;28;20289;-39
2023/06/10 04:45:15;;;;;;;9.97;8.97;;;15.00;99.90;;;;;;5069292;28;20197;-39
2023/06/10 04:47:41;;;;;;;10.33;9.33;;;15.10;99.90;;;;;;5073499;28;20182;-38
2023/06/10 04:50:08;;;;;;;10.53;9.47;;;15.20;99.90;;;;;;5067941;28;20223;-39
2023/06/10 04:52:33;;;;;;;11.27;10.17;;;15.20;99.90;;;;;;5066010;28;20177;-36
2023/06/10 04:55:00;;;;;;;10.83;9.93;;;15.20;99.90;;;;;;5046501;28;20198;-37
2023/06/10 04:57:25;;;;;;;10.20;9.30;;;15.20;99.90;;;;;;5064928;28;20189;-36
2023/06/10 04:59:53;;;;;;;10.57;9.57;;;15.30;99.90;;;;;;5065402;28;20282;-39
2023/06/10 05:02:20;;;;;;;11.10;9.93;;;15.40;99.90;;;;;;5067111;28;20197;-35
2023/06/10 05:04:45;;;;;;;10.90;9.87;;;15.40;99.90;;;;;;5040472;28;20283;-40
2023/06/10 05:07:12;;;;;;;10.30;9.40;;;15.50;99.90;;;;;;5066112;28;20276;-39
2023/06/10 05:09:38;;;;;;;10.00;9.10;;;15.50;99.90;;;;;;5081024;28;20222;-39
2023/06/10 05:12:05;;;;;;;10.67;9.70;;;15.60;99.90;;;;;;5066702;28;20170;-35
2023/06/10 05:14:31;;;;;;;11.70;10.50;;;15.70;99.90;;;;;;5068919;28;20208;-34
2023/06/10 05:16:57;;;;;;;11.37;10.37;;;15.70;99.90;;;;;;5066866;28;20667;-38
2023/06/10 05:19:23;;;;;;;12.00;10.90;;;15.80;99.90;;;;;;5059515;28;20178;-40
2023/06/10 05:21:49;;;;;;;11.70;10.70;;;15.80;99.90;;;;;;5078421;28;20181;-40
2023/06/10 05:24:15;;;;;;;11.43;10.33;;;15.90;99.90;;;;;;5068559;28;20217;-38
2023/06/10 05:26:41;;;;;;;12.50;11.40;;;16.00;99.90;;;;;;5047472;28;20189;-39
2023/06/10 05:29:09;;;;;;;11.57;10.50;;;16.20;99.90;;;;;;5063053;28;20204;-38
2023/06/10 05:31:34;;;;;;;12.83;10.87;;;16.30;99.90;;;;;;5059160;28;20178;-37
2023/06/10 05:34:00;;;;;;;12.00;10.63;;;16.40;99.90;;;;;;5043194;28;20225;-38
2023/06/10 05:36:27;;;;;;;11.00;9.80;;;16.50;99.90;;;;;;5057219;28;20211;-40
2023/06/10 05:38:53;;;;;;;12.13;10.93;;;16.70;99.90;;;;;;5061607;28;20272;-42
2023/06/10 05:41:20;;;;;;;12.53;10.57;;;16.80;99.90;;;;;;5063894;28;20711;-38
2023/06/10 05:43:45;;;;;;;11.67;10.57;;;16.90;99.90;;;;;;5062946;28;20217;-39
2023/06/10 05:46:11;;;;;;;11.37;10.20;;;17.10;99.90;;;;;;5060972;28;20311;-38
2023/06/10 05:48:37;;;;;;;10.40;9.40;;;17.20;99.90;;;;;;5043908;28;20258;-40
2023/06/10 05:51:03;;;;;;;10.83;9.73;;;17.30;99.90;;;;;;5060526;28;20252;-38
2023/06/10 05:53:29;;;;;;;10.50;9.50;;;17.50;99.90;;;;;;5063567;28;20180;-38
2023/06/10 05:55:57;;;;;;;10.20;9.23;;;17.60;99.90;;;;;;5050554;28;20211;-37
2023/06/10 05:58:24;;;;;;;11.68;10.05;;;17.60;99.90;;;;;;5069849;28;20228;-39
2023/06/10 06:00:50;;;;;;;10.60;9.60;;;17.80;99.90;;;;;;5077344;28;20186;-40
2023/06/10 06:03:16;;;;;;;10.73;9.82;;;17.90;99.90;;;;;;5065720;28;20209;-37
2023/06/10 06:05:42;;;;;;;12.60;10.13;;;18.10;99.90;;;;;;5046681;28;20210;-38
2023/06/10 06:08:08;;;;;;;10.75;9.75;;;18.20;99.90;;;;;;5069416;28;20311;-39
2023/06/10 06:10:34;;;;;;;10.90;9.90;;;18.40;99.90;;;;;;5069465;28;20248;-39
2023/06/10 06:13:00;;;;;;;10.48;9.48;;;18.50;99.90;;;;;;5077951;28;20184;-38
2023/06/10 06:15:26;;;;;;;11.50;10.30;;;18.70;99.90;;;;;;5065659;28;20217;-36
2023/06/10 06:17:52;;;;;;;11.20;10.05;;;18.90;99.90;;;;;;5051527;28;20182;-38
2023/06/10 06:20:19;;;;;;;11.45;9.02;;;19.00;99.90;;;;;;5062639;28;20257;-37
2023/06/10 06:22:47;;;;;;;12.43;10.00;;;19.20;99.90;;;;;;5061602;28;20238;-40
2023/06/10 06:25:15;;;;;;;9.68;8.77;;;19.30;99.90;;;;;;5058395;28;20198;-41
2023/06/10 06:27:53;;;;;;;9.95;8.95;;;19.40;99.90;;;;;;5042565;28;20185;-36
2023/06/10 06:30:21;;;;;;;9.93;9.02;;;19.40;99.90;;;;;;5076420;28;20177;-37
2023/06/10 06:32:48;;;;;;;10.02;9.02;;;19.60;99.90;;;;;;5081685;28;20191;-38
2023/06/10 06:35:14;;;;;;;9.50;8.55;;;19.70;99.90;;;;;;5067511;28;20317;-41
2023/06/10 06:37:40;;;;;;;9.65;8.75;;;19.80;99.90;;;;;;5067459;28;20276;-39
2023/06/10 06:40:17;;;;;;;9.68;8.68;;;20.00;99.90;;;;;;5069607;28;20185;-40
2023/06/10 06:42:44;;;;;;;9.25;8.35;;;20.30;99.90;;;;;;5063451;28;20213;-40
2023/06/10 06:45:15;;;;;;;9.18;8.38;;;20.50;99.90;;;;;;5060339;28;20275;-38
2023/06/10 06:47:42;;;;;;;9.15;8.10;;;20.70;99.90;;;;;;5069212;28;20205;-39
2023/06/10 06:50:09;;;;;;;9.30;8.50;;;20.90;99.90;;;;;;5050216;28;20181;-43
2023/06/10 06:52:35;;;;;;;9.00;8.20;;;21.10;99.90;;;;;;5081342;28;20183;-41
2023/06/10 06:55:01;;;;;;;8.43;7.25;;;21.10;99.90;;;;;;5073072;28;20201;-42
2023/06/10 06:57:27;;;;;;;8.30;7.45;;;21.30;99.90;;;;;;5073100;28;20217;-38
2023/06/10 06:59:52;;;;;;;7.95;6.82;;;21.40;99.90;;;;;;5070561;28;20277;-39
2023/06/10 07:02:19;;;;;;;8.00;7.30;;;21.60;99.90;;;;;;5066813;28;20186;-43
2023/06/10 07:04:45;;;;;;;7.18;6.20;;;21.80;99.90;;;;;;5064207;28;20201;-43
2023/06/10 07:07:11;;;;;;;7.97;6.82;;;22.00;99.90;;;;;;5072353;28;20177;-43
2023/06/10 07:09:39;;;;;;;9.07;7.75;;;22.20;99.90;;;;;;5072762;28;20178;-43
2023/06/10 07:12:06;;;;;;;7.82;6.93;;;22.10;99.90;;;;;;5054561;28;20173;-43
2023/06/10 07:14:32;;;;;;;8.38;6.65;;;22.30;99.90;;;;;;5065777;28;20209;-43
2023/06/10 07:16:58;;;;;;;7.45;6.70;;;22.20;99.90;;;;;;5071361;28;20193;-42
2023/06/10 07:19:24;;;;;;;6.95;6.35;;;22.40;99.90;;;;;;5072261;28;20181;-43
2023/06/10 07:21:50;;;;;;;8.63;6.88;;;22.60;99.90;;;;;;5072231;28;20181;-43
2023/06/10 07:24:16;;;;;;;7.57;6.95;;;22.80;99.90;;;;;;5050352;28;20218;-38
2023/06/10 07:26:42;;;;;;;7.05;6.45;;;23.00;99.90;;;;;;5072311;28;20197;-42
2023/06/10 07:29:08;;;;;;;7.70;7.00;;;23.20;99.90;;;;;;5073743;28;20181;-42
2023/06/10 07:31:34;;;;;;;7.47;6.78;;;23.20;99.90;;;;;;5045629;28;20185;-42
2023/06/10 07:34:00;;;;;;;6.97;6.38;;;23.20;99.90;;;;;;5054823;28;20209;-40
2023/06/10 07:36:28;;;;;;;7.32;6.63;;;23.40;99.90;;;;;;5064000;28;20220;-43
2023/06/10 07:38:55;;;;;;;7.47;6.78;;;23.40;99.90;;;;;;5070916;28;20271;-41
2023/06/10 07:41:25;;;;;;;6.50;6.00;;;23.60;99.90;;;;;;5055776;28;20178;-43
2023/06/10 07:43:54;;;;;;;8.48;6.93;;;23.70;99.90;;;;;;5054750;28;20217;-43
2023/06/10 07:46:24;;;;;;;9.35;6.68;;;23.90;99.90;;;;;;5057008;28;20185;-43
2023/06/10 07:48:51;;;;;;;7.03;6.35;;;24.10;99.90;;;;;;5065815;28;20192;-43
2023/06/10 07:51:17;;;;;;;8.45;6.65;;;24.10;99.90;;;;;;5074196;28;20200;-43
2023/06/10 07:53:43;;;;;;;7.28;6.55;;;24.20;99.90;;;;;;5049328;28;20183;-43
2023/06/10 07:56:08;;;;;;;7.13;6.53;;;24.20;99.90;;;;;;5080350;28;20182;-42
2023/06/10 07:58:34;;;;;;;7.07;6.47;;;24.30;99.90;;;;;;5065823;28;20181;-43
2023/06/10 08:01:00;;;;;;;6.65;6.00;;;24.40;99.90;;;;;;5069347;28;20181;-43
2023/06/10 08:03:26;;;;;;;7.38;6.68;;;24.40;99.90;;;;;;5062058;28;20292;-42
2023/06/10 08:05:52;;;;;;;6.93;6.22;;;24.60;99.90;;;;;;5071254;28;20278;-43
2023/06/10 08:08:18;;;;;;;7.53;6.32;;;24.80;99.90;;;;;;5050121;28;20193;-43
2023/06/10 08:10:43;;;;;;;7.70;7.00;;;24.90;99.90;;;;;;5066868;28;20173;-43
2023/06/10 08:13:09;;;;;;;7.78;6.15;;;24.90;99.90;;;;;;5081921;28;20180;-43
2023/06/10 08:15:35;;;;;;;7.13;6.53;;;25.10;99.90;;;;;;5072107;28;20235;-43
2023/06/10 08:18:01;;;;;;;6.55;5.95;;;25.20;99.90;;;;;;5051245;28;20239;-41
2023/06/10 08:20:27;;;;;;;5.90;5.40;;;25.30;99.90;;;;;;5068171;28;20197;-41
2023/06/10 08:22:53;;;;;;;6.90;6.30;;;25.40;99.90;;;;;;5047503;28;20275;-43
2023/06/10 08:25:21;;;;;;;6.20;5.70;;;25.40;99.90;;;;;;5070316;28;20193;-43
2023/06/10 08:27:47;;;;;;;6.40;5.80;;;25.70;99.90;;;;;;5071212;28;20177;-43
2023/06/10 08:30:14;;;;;;;5.90;5.40;;;25.70;99.90;;;;;;5072302;28;20185;-43
2023/06/10 08:32:39;;;;;;;6.00;5.50;;;25.80;99.90;;;;;;5065801;28;20217;-41
2023/06/10 08:35:05;;;;;;;6.28;5.70;;;25.90;99.90;;;;;;5070924;28;20259;-43
2023/06/10 08:37:31;;;;;;;6.10;5.60;;;25.90;99.90;;;;;;5070899;28;20189;-43
2023/06/10 08:39:57;;;;;;;5.65;5.22;;;26.10;99.90;;;;;;5071147;28;20182;-43
2023/06/10 08:42:58;;;;;;;5.43;4.93;;;26.30;99.90;;;;;;5054056;28;20188;-41
2023/06/10 08:45:27;;;;;;;4.85;4.45;;;26.50;99.90;;;;;;5054040;28;20200;-43
2023/06/10 08:47:57;;;;;;;5.40;4.90;;;26.60;99.90;;;;;;5071295;28;20189;-41
2023/06/10 08:50:23;;;;;;;5.43;4.93;;;26.80;99.90;;;;;;5070772;28;20177;-40
2023/06/10 08:52:54;;;;;;;5.43;5.03;;;27.10;99.90;;;;;;5070650;28;20648;-43
2023/06/10 08:55:37;;;;;;;5.00;4.53;;;27.20;99.90;;;;;;5059427;28;20265;-43
2023/06/10 08:58:03;;;;;;;5.03;4.63;;;27.30;99.90;;;;;;5067165;28;20261;-43
2023/06/10 09:00:31;;;;;;;5.45;5.00;;;27.50;99.90;;;;;;5062508;28;20181;-42
2023/06/10 09:02:58;;;;;;;5.40;5.00;;;27.70;99.90;;;;;;5058476;28;20209;-43
2023/06/10 09:05:25;;;;;;;5.75;5.15;;;27.80;99.90;;;;;;5066830;28;20194;-43
2023/06/10 09:07:52;;;;;;;6.05;5.55;;;27.70;99.90;;;;;;5058574;28;20178;-40
2023/06/10 09:10:18;;;;;;;4.93;4.53;;;27.80;99.90;;;;;;5052493;28;20180;-41
2023/06/10 09:12:44;;;;;;;5.75;5.07;;;27.80;99.90;;;;;;5065375;28;20188;-43
2023/06/10 09:15:12;;;;;;;4.90;4.50;;;27.90;99.90;;;;;;5053543;28;20210;-42
2023/06/10 09:17:40;;;;;;;5.22;4.82;;;28.00;99.90;;;;;;5072085;28;20181;-44
2023/06/10 09:20:07;;;;;;;5.47;4.97;;;28.20;99.90;;;;;;5062662;28;20181;-44
2023/06/10 09:22:34;;;;;;;4.88;4.47;;;28.40;99.90;;;;;;5062788;28;20215;-43
2023/06/10 09:25:08;;;;;;;5.55;5.05;;;28.40;99.90;;;;;;5070408;28;20288;-44
2023/06/10 09:27:53;;;;;;;5.60;5.00;;;28.20;99.90;;;;;;5070037;28;20263;-43
2023/06/10 09:30:33;;;;;;;5.18;4.78;;;28.20;99.90;;;;;;5060809;28;20185;-41
2023/06/10 09:33:10;;;;;;;5.57;5.13;;;28.20;99.90;;;;;;5049597;28;20181;-43
2023/06/10 09:35:36;;;;;;;5.20;4.80;;;28.10;99.90;;;;;;5062955;28;20219;-43
2023/06/10 09:38:02;;;;;;;5.50;4.50;;;28.30;99.90;;;;;;5070043;28;20185;-41
2023/06/10 09:40:28;;;;;;;5.40;4.90;;;28.40;99.90;;;;;;5069949;28;20186;-43
2023/06/10 09:42:56;;;;;;;4.90;4.50;;;28.60;99.90;;;;;;5053402;28;20217;-42
2023/06/10 09:45:22;;;;;;;4.90;4.50;;;28.70;99.90;;;;;;5069709;28;20201;-43
2023/06/10 09:47:52;;;;;;;5.13;4.72;;;28.90;99.90;;;;;;5047553;28;20200;-43
2023/06/10 09:50:18;;;;;;;5.05;4.65;;;28.70;99.90;;;;;;5069479;28;20185;-41
2023/06/10 09:52:46;;;;;;;5.05;4.65;;;28.80;99.90;;;;;;5070127;28;20182;-43
2023/06/10 09:55:12;;;;;;;5.03;4.60;;;28.90;99.90;;;;;;5043549;28;20227;-43
2023/06/10 09:57:39;;;;;;;4.53;4.22;;;28.70;99.90;;;;;;5062821;28;20194;-42
2023/06/10 10:00:10;;;;;;;4.97;4.57;;;28.80;99.90;;;;;;5052955;28;20181;-42
2023/06/10 10:02:53;;;;;;;4.97;4.57;;;28.60;99.90;;;;;;5059625;28;20198;-43
2023/06/10 10:05:22;;;;;;;5.20;4.45;;;28.70;99.90;;;;;;5059970;28;20205;-43
2023/06/10 10:07:48;;;;;;;5.30;4.90;;;28.80;99.90;;;;;;5072160;28;20174;-43
2023/06/10 10:10:15;;;;;;;4.88;4.45;;;28.70;99.90;;;;;;5050342;28;20192;-43
2023/06/10 10:12:42;;;;;;;4.47;4.07;;;28.90;99.90;;;;;;5053222;28;20185;-43
2023/06/10 10:15:10;;;;;;;4.65;4.30;;;29.10;99.90;;;;;;5069720;28;20207;-43
2023/06/10 10:17:45;;;;;;;4.60;4.20;;;29.30;99.90;;;;;;5069402;28;20222;-43
2023/06/10 10:20:14;;;;;;;4.60;4.20;;;29.10;99.90;;;;;;5064450;28;20254;-42
2023/06/10 10:22:43;;;;;;;5.03;4.07;;;29.10;99.90;;;;;;5052132;28;20189;-41
2023/06/10 10:25:16;;;;;;;4.53;4.13;;;29.00;99.90;;;;;;5053434;28;20204;-43
2023/06/10 10:27:54;;;;;;;4.57;4.13;;;29.00;99.90;;;;;;5049184;28;20170;-43
2023/06/10 10:30:21;;;;;;;5.00;4.60;;;29.00;99.90;;;;;;5056464;28;20302;-43
2023/06/10 10:33:04;;;;;;;4.40;3.97;;;29.10;99.90;;;;;;5055091;28;20182;-44
2023/06/10 10:35:33;;;;;;;4.45;4.05;;;29.40;99.90;;;;;;5049037;28;20268;-42
2023/06/10 10:37:59;;;;;;;4.43;4.03;;;29.50;99.90;;;;;;5074541;28;20181;-40
2023/06/10 10:40:29;;;;;;;4.65;3.60;;;29.80;99.90;;;;;;5054189;28;20197;-40
2023/06/10 10:42:56;;;;;;;4.85;4.45;;;29.80;99.90;;;;;;5085510;28;20212;-41
2023/06/10 10:45:22;;;;;;;4.50;4.10;;;29.60;99.90;;;;;;5065477;28;20208;-39
2023/06/10 10:47:53;;;;;;;5.13;4.22;;;29.80;99.90;;;;;;5073535;28;20224;-42
2023/06/10 10:50:20;;;;;;;4.32;3.88;;;29.90;99.90;;;;;;5056581;28;20277;-42
2023/06/10 10:53:01;;;;;;;4.47;3.97;;;29.70;99.90;;;;;;5073815;28;20204;-40
2023/06/10 10:55:28;;;;;;;3.75;3.45;;;29.80;99.90;;;;;;5065088;28;20232;-39
2023/06/10 10:58:07;;;;;;;3.78;3.47;;;29.60;99.90;;;;;;5090670;28;20185;-41
2023/06/10 11:00:43;;;;;;;4.45;4.15;;;29.70;99.90;;;;;;5070602;28;20193;-39
2023/06/10 11:03:13;;;;;;;4.25;3.95;;;29.90;99.90;;;;;;5073886;28;20243;-42
2023/06/10 11:05:41;;;;;;;4.55;3.80;;;29.80;99.90;;;;;;5067104;28;20293;-41
2023/06/10 11:08:09;;;;;;;4.55;4.25;;;30.10;99.90;;;;;;5053193;28;20228;-40
2023/06/10 11:10:37;;;;;;;4.43;4.03;;;30.00;99.90;;;;;;5061376;28;20264;-40
2023/06/10 11:13:13;;;;;;;4.57;4.20;;;30.30;99.90;;;;;;5069554;28;20636;-40
2023/06/10 11:15:52;;;;;;;5.03;3.85;;;30.40;99.90;;;;;;5072993;28;20200;-39
2023/06/10 11:18:29;;;;;;;4.30;3.78;;;30.20;99.90;;;;;;5071062;28;20271;-39
2023/06/10 11:20:58;;;;;;;4.45;3.45;;;30.20;99.90;;;;;;5052945;28;20208;-41
2023/06/10 11:23:32;;;;;;;4.28;3.97;;;30.50;99.90;;;;;;5057001;28;20207;-43
2023/06/10 11:26:26;;;;;;;4.80;4.10;;;30.30;99.90;;;;;;5072862;28;20196;-40
2023/06/10 11:28:55;;;;;;;4.03;3.72;;;30.20;99.90;;;;;;5039536;28;20178;-42
2023/06/10 11:31:38;;;;;;;4.25;3.85;;;30.00;99.90;;;;;;5085153;28;20178;-38
2023/06/10 11:34:06;;;;;;;4.32;3.92;;;30.00;99.90;;;;;;5067760;28;20266;-43
2023/06/10 11:36:37;;;;;;;4.30;3.90;;;30.10;99.90;;;;;;5064659;28;20181;-40
2023/06/10 11:39:05;;;;;;;4.68;4.20;;;30.30;99.90;;;;;;5069155;28;20192;-42
2023/06/10 11:41:32;;;;;;;4.50;4.10;;;30.40;99.90;;;;;;5044631;28;20239;-39
2023/06/10 11:44:08;;;;;;;3.92;3.67;;;30.50;99.90;;;;;;5059602;28;20213;-38
2023/06/10 11:46:34;;;;;;;4.20;3.90;;;30.80;99.90;;;;;;5053354;28;20181;-42
2023/06/10 11:49:02;;;;;;;4.00;3.70;;;30.90;99.40;;;;;;5060046;28;20193;-39
2023/06/10 11:51:32;;;;;;;4.47;4.18;;;30.90;98.70;;;;;;5071974;28;20185;-39
2023/06/10 11:53:58;;;;;;;4.13;3.72;;;30.90;98.50;;;;;;5063993;28;20264;-39
2023/06/10 11:56:28;;;;;;;4.32;3.92;;;31.00;99.10;;;;;;5064144;28;20265;-41
2023/06/10 11:59:09;;;;;;;4.10;3.70;;;31.20;98.70;;;;;;5072245;28;20177;-41
2023/06/10 12:01:36;;;;;;;4.43;4.03;;;31.60;98.10;;;;;;5069372;28;20189;-39
2023/06/10 12:04:08;;;;;;;4.20;3.90;;;31.70;97.80;;;;;;5072136;28;20704;-41
2023/06/10 12:07:03;;;;;;;4.22;3.92;;;31.90;99.10;;;;;;5044417;28;20268;-41
2023/06/10 12:09:30;;;;;;;4.10;3.80;;;31.50;97.00;;;;;;5047052;28;20196;-40
2023/06/10 12:12:04;;;;;;;3.90;3.60;;;31.30;97.30;;;;;;5059154;28;20258;-39
2023/06/10 12:15:09;;;;;;;3.90;3.60;;;31.20;97.60;;;;;;5080656;28;20204;-39
2023/06/10 12:17:38;;;;;;;4.25;3.88;;;31.30;96.20;;;;;;5050546;28;20181;-41
2023/06/10 12:20:23;;;;;;;4.30;3.90;;;31.10;96.60;;;;;;5033796;28;20194;-41
2023/06/10 12:22:50;;;;;;;4.60;4.30;;;31.00;97.20;;;;;;5065911;28;20217;-41
2023/06/10 12:25:15;;;;;;;4.10;3.80;;;30.80;97.30;;;;;;5051794;28;20228;-39
2023/06/10 12:27:52;;;;;;;6.15;4.10;;;30.80;97.50;;;;;;5051755;28;20177;-42
2023/06/10 12:30:24;;;;;;;5.00;4.40;;;30.80;96.80;;;;;;5062421;28;20182;-39
2023/06/10 12:32:52;;;;;;;10.07;4.43;;;31.00;97.70;;;;;;5046307;28;20177;-36
2023/06/10 12:35:20;;;;;;;4.10;3.70;;;30.80;97.40;;;;;;5065702;28;20264;-44
2023/06/10 12:38:00;;;;;;;4.32;3.92;;;30.60;97.70;;;;;;5073704;28;20197;-39
2023/06/10 12:40:31;;;;;;;4.03;3.72;;;30.50;98.20;;;;;;5066436;28;20189;-40
2023/06/10 12:42:59;;;;;;;4.13;3.67;;;30.10;97.70;;;;;;5058097;28;20296;-44
2023/06/10 12:45:44;;;;;;;3.95;3.65;;;30.00;97.60;;;;;;5069525;28;20208;-41
2023/06/10 12:48:23;;;;;;;4.07;3.60;;;29.80;96.60;;;;;;5072985;28;20197;-41
2023/06/10 12:50:54;;;;;;;4.10;3.80;;;29.70;97.30;;;;;;5071292;28;20177;-43
2023/06/10 12:53:22;;;;;;;4.25;3.95;;;29.70;97.80;;;;;;5071038;28;20181;-44